Terminal Aerodrome Forecast
Issued by NWS Grand Forks, ND

Home | Current Version | Previous Version | Graphics & Text | Print | Product List | Glossary On
Versions: 1 2 3 4 5 6 7 8 9 10 11 12 13 14 15 16 17 18 19 20 21 22 23 24 25
000
FTUS43 KFGF 201139
TAFGFK
TAF
KGFK 201139Z 2012/2112 13007KT 2SM BR VCSH OVC110
     FM201400 16010KT P6SM BKN035
      TEMPO 2014/2016 4SM -SHRA BR
     FM201800 25012KT P6SM VCSH OVC035
     FM202000 27013KT P6SM BKN040
     FM210700 23006KT P6SM SCT100=

USA.gov is the U.S. government's official web portal to all federal, state and local government web resources and services.